SWA3799 KLAS-KLAX
Flight info
| Callsign | SWA3799 |
|---|---|
| Flight time | 0h 44m |
| Altitude | 28000 |
| Route | RADYR2 BLAQQ SHTNR ANJLL4 |
| Aircraft | B737/M-SDE2E3FGHIRWXY/LB1 |
Departure
| Time | 2026-05-07 19:22 |
|---|---|
| Airport | Harry Reid International Airport (KLAS) |
Arrival
| Time | 2026-05-07 20:07 |
|---|---|
| Airport | Los Angeles International Airport (KLAX) |
| Time | Latitude | Longitude | Altitude | Speed | Heading |
|---|---|---|---|---|---|
| 2026-05-07 18:58 | 36.08334 | -115.15315 | 2112 ft | 0 kts | 157° |
| 2026-05-07 19:11 | 36.08341 | -115.15319 | 2112 ft | 2 kts | 156° |
| 2026-05-07 19:11 | 36.08355 | -115.15327 | 2111 ft | 2 kts | 157° |
| 2026-05-07 19:12 | 36.08369 | -115.15334 | 2111 ft | 2 kts | 156° |
| 2026-05-07 19:12 | 36.08383 | -115.15341 | 2111 ft | 2 kts | 156° |
| 2026-05-07 19:12 | 36.08398 | -115.15346 | 2111 ft | 2 kts | 188° |
| 2026-05-07 19:12 | 36.08412 | -115.15340 | 2111 ft | 2 kts | 216° |
| 2026-05-07 19:13 | 36.08422 | -115.15326 | 2110 ft | 2 kts | 245° |
| 2026-05-07 19:13 | 36.08424 | -115.15319 | 2110 ft | 0 kts | 251° |
| 2026-05-07 19:15 | 36.08422 | -115.15326 | 2110 ft | 2 kts | 248° |
| 2026-05-07 19:15 | 36.08409 | -115.15361 | 2112 ft | 5 kts | 246° |
| 2026-05-07 19:15 | 36.08389 | -115.15414 | 2114 ft | 8 kts | 242° |
| 2026-05-07 19:16 | 36.08360 | -115.15485 | 2117 ft | 10 kts | 244° |
| 2026-05-07 19:16 | 36.08316 | -115.15565 | 2121 ft | 12 kts | 203° |
| 2026-05-07 19:16 | 36.08222 | -115.15530 | 2122 ft | 17 kts | 154° |
| 2026-05-07 19:16 | 36.08100 | -115.15459 | 2123 ft | 20 kts | 156° |
| 2026-05-07 19:17 | 36.07967 | -115.15383 | 2124 ft | 21 kts | 154° |
| 2026-05-07 19:17 | 36.07878 | -115.15250 | 2121 ft | 22 kts | 89° |
| 2026-05-07 19:17 | 36.07874 | -115.15049 | 2113 ft | 24 kts | 95° |
| 2026-05-07 19:17 | 36.07859 | -115.14824 | 2105 ft | 27 kts | 95° |
| 2026-05-07 19:18 | 36.07843 | -115.14588 | 2099 ft | 29 kts | 95° |
| 2026-05-07 19:18 | 36.07825 | -115.14299 | 2088 ft | 38 kts | 92° |
| 2026-05-07 19:18 | 36.07829 | -115.14060 | 2082 ft | 26 kts | 90° |
| 2026-05-07 19:18 | 36.07829 | -115.13831 | 2076 ft | 26 kts | 90° |
| 2026-05-07 19:19 | 36.07826 | -115.13598 | 2068 ft | 27 kts | 91° |
| 2026-05-07 19:19 | 36.07828 | -115.13349 | 2060 ft | 29 kts | 89° |
| 2026-05-07 19:19 | 36.07828 | -115.13100 | 2054 ft | 29 kts | 90° |
| 2026-05-07 19:19 | 36.07828 | -115.12840 | 2047 ft | 30 kts | 90° |
| 2026-05-07 19:20 | 36.07829 | -115.12581 | 2041 ft | 30 kts | 90° |
| 2026-05-07 19:20 | 36.07830 | -115.12322 | 2037 ft | 29 kts | 91° |
| 2026-05-07 19:20 | 36.07767 | -115.12176 | 2038 ft | 13 kts | 130° |
| 2026-05-07 19:20 | 36.07690 | -115.12125 | 2038 ft | 12 kts | 181° |
| 2026-05-07 19:21 | 36.07641 | -115.12165 | 2040 ft | 0 kts | 271° |
| 2026-05-07 19:21 | 36.07642 | -115.12267 | 2040 ft | 44 kts | 270° |
| 2026-05-07 19:22 | 36.07640 | -115.12994 | 2054 ft | 122 kts | 270° |
| 2026-05-07 19:22 | 36.07646 | -115.14282 | 2312 ft | 163 kts | 271° |
| 2026-05-07 19:22 | 36.07648 | -115.15662 | 3081 ft | 166 kts | 270° |
| 2026-05-07 19:22 | 36.07652 | -115.17134 | 3674 ft | 185 kts | 271° |
| 2026-05-07 19:23 | 36.07662 | -115.18818 | 4174 ft | 208 kts | 271° |
| 2026-05-07 19:23 | 36.07606 | -115.20683 | 4840 ft | 225 kts | 261° |
| 2026-05-07 19:23 | 36.07333 | -115.22573 | 5767 ft | 230 kts | 260° |
| 2026-05-07 19:23 | 36.07021 | -115.24548 | 6507 ft | 246 kts | 252° |
| 2026-05-07 19:24 | 36.06145 | -115.26295 | 7114 ft | 262 kts | 220° |
| 2026-05-07 19:24 | 36.04495 | -115.27322 | 7762 ft | 279 kts | 194° |
| 2026-05-07 19:24 | 36.02588 | -115.27958 | 8076 ft | 295 kts | 196° |
| 2026-05-07 19:24 | 36.00662 | -115.28783 | 8028 ft | 291 kts | 199° |
| 2026-05-07 19:25 | 35.98747 | -115.29578 | 8049 ft | 291 kts | 193° |
| 2026-05-07 19:25 | 35.96668 | -115.30069 | 8688 ft | 310 kts | 188° |
| 2026-05-07 19:25 | 35.94618 | -115.30539 | 10034 ft | 303 kts | 190° |
| 2026-05-07 19:25 | 35.92558 | -115.31044 | 10960 ft | 311 kts | 190° |
| 2026-05-07 19:26 | 35.90382 | -115.31574 | 11598 ft | 328 kts | 190° |
| 2026-05-07 19:26 | 35.88136 | -115.32123 | 12505 ft | 335 kts | 190° |
| 2026-05-07 19:26 | 35.85928 | -115.32664 | 13411 ft | 340 kts | 190° |
| 2026-05-07 19:26 | 35.83599 | -115.33235 | 14350 ft | 344 kts | 190° |
| 2026-05-07 19:27 | 35.81435 | -115.33765 | 15201 ft | 348 kts | 190° |
| 2026-05-07 19:27 | 35.79046 | -115.34351 | 16106 ft | 351 kts | 190° |
| 2026-05-07 19:27 | 35.76662 | -115.34935 | 16976 ft | 355 kts | 190° |
| 2026-05-07 19:27 | 35.74244 | -115.35526 | 17816 ft | 359 kts | 190° |
| 2026-05-07 19:28 | 35.71792 | -115.36127 | 18642 ft | 363 kts | 191° |
| 2026-05-07 19:28 | 35.69340 | -115.36726 | 19434 ft | 367 kts | 191° |
| 2026-05-07 19:28 | 35.66840 | -115.37337 | 20223 ft | 370 kts | 191° |
| 2026-05-07 19:28 | 35.64294 | -115.37956 | 20979 ft | 374 kts | 190° |
| 2026-05-07 19:29 | 35.61919 | -115.38414 | 21651 ft | 377 kts | 186° |
| 2026-05-07 19:29 | 35.59373 | -115.38563 | 22331 ft | 380 kts | 178° |
| 2026-05-07 19:29 | 35.56753 | -115.38391 | 23015 ft | 384 kts | 176° |
| 2026-05-07 19:29 | 35.54076 | -115.38198 | 23807 ft | 383 kts | 177° |
| 2026-05-07 19:30 | 35.51451 | -115.38039 | 24708 ft | 379 kts | 177° |
| 2026-05-07 19:30 | 35.48858 | -115.37875 | 25497 ft | 377 kts | 177° |
| 2026-05-07 19:30 | 35.46244 | -115.37884 | 26224 ft | 376 kts | 186° |
| 2026-05-07 19:30 | 35.43692 | -115.38466 | 26941 ft | 374 kts | 195° |
| 2026-05-07 19:31 | 35.41263 | -115.39449 | 27613 ft | 372 kts | 203° |
| 2026-05-07 19:31 | 35.38978 | -115.40859 | 28116 ft | 372 kts | 208° |
| 2026-05-07 19:31 | 35.34364 | -115.43865 | 28119 ft | 372 kts | 207° |
| 2026-05-07 19:32 | 35.29801 | -115.46757 | 28119 ft | 369 kts | 207° |
| 2026-05-07 19:32 | 35.25265 | -115.49648 | 28119 ft | 371 kts | 207° |
| 2026-05-07 19:33 | 35.20698 | -115.52554 | 28119 ft | 370 kts | 207° |
| 2026-05-07 19:33 | 35.16146 | -115.55449 | 28107 ft | 370 kts | 207° |
| 2026-05-07 19:34 | 35.11832 | -115.58851 | 28098 ft | 370 kts | 220° |
| 2026-05-07 19:34 | 35.08221 | -115.63347 | 28105 ft | 371 kts | 226° |
| 2026-05-07 19:35 | 35.04766 | -115.67698 | 28122 ft | 372 kts | 225° |
| 2026-05-07 19:35 | 35.01184 | -115.72244 | 28119 ft | 370 kts | 225° |
| 2026-05-07 19:36 | 34.97662 | -115.76720 | 28114 ft | 363 kts | 225° |
| 2026-05-07 19:36 | 34.94359 | -115.80920 | 28114 ft | 359 kts | 224° |
| 2026-05-07 19:37 | 34.90916 | -115.85296 | 28118 ft | 355 kts | 224° |
| 2026-05-07 19:37 | 34.87569 | -115.89545 | 28127 ft | 351 kts | 224° |
| 2026-05-07 19:38 | 34.84205 | -115.93812 | 28128 ft | 351 kts | 224° |
| 2026-05-07 19:38 | 34.80920 | -115.97974 | 28128 ft | 352 kts | 224° |
| 2026-05-07 19:39 | 34.77534 | -116.02259 | 28128 ft | 352 kts | 224° |
| 2026-05-07 19:39 | 34.74738 | -116.05819 | 28128 ft | 352 kts | 224° |
| 2026-05-07 19:40 | 34.70865 | -116.10757 | 28128 ft | 352 kts | 224° |
| 2026-05-07 19:40 | 34.67595 | -116.14918 | 28128 ft | 352 kts | 224° |
| 2026-05-07 19:41 | 34.64239 | -116.19183 | 28124 ft | 352 kts | 224° |
| 2026-05-07 19:41 | 34.60859 | -116.23473 | 28122 ft | 351 kts | 224° |
| 2026-05-07 19:42 | 34.57483 | -116.27752 | 28124 ft | 351 kts | 224° |
| 2026-05-07 19:42 | 34.54105 | -116.32028 | 28128 ft | 351 kts | 224° |
| 2026-05-07 19:43 | 34.50735 | -116.36289 | 28128 ft | 351 kts | 224° |
| 2026-05-07 19:43 | 34.47363 | -116.40547 | 28127 ft | 351 kts | 224° |
| 2026-05-07 19:44 | 34.44002 | -116.44794 | 28118 ft | 351 kts | 225° |
| 2026-05-07 19:44 | 34.41048 | -116.49515 | 28108 ft | 355 kts | 238° |
| 2026-05-07 19:45 | 34.38835 | -116.54842 | 28079 ft | 356 kts | 240° |
| 2026-05-07 19:45 | 34.37723 | -116.57474 | 27780 ft | 350 kts | 239° |
| 2026-05-07 19:45 | 34.36624 | -116.60085 | 27411 ft | 345 kts | 240° |
| 2026-05-07 19:46 | 34.35550 | -116.62668 | 27001 ft | 343 kts | 240° |
| 2026-05-07 19:46 | 34.34474 | -116.65256 | 26582 ft | 350 kts | 239° |
| 2026-05-07 19:46 | 34.33390 | -116.67866 | 26156 ft | 348 kts | 240° |
| 2026-05-07 19:46 | 34.32323 | -116.70497 | 25735 ft | 345 kts | 240° |
| 2026-05-07 19:47 | 34.31294 | -116.73074 | 25327 ft | 342 kts | 240° |
| 2026-05-07 19:47 | 34.30268 | -116.75625 | 24924 ft | 338 kts | 240° |
| 2026-05-07 19:47 | 34.29238 | -116.78181 | 24520 ft | 335 kts | 240° |
| 2026-05-07 19:47 | 34.28231 | -116.80679 | 24126 ft | 333 kts | 240° |
| 2026-05-07 19:48 | 34.27202 | -116.83229 | 23727 ft | 340 kts | 240° |
| 2026-05-07 19:48 | 34.26182 | -116.85757 | 23324 ft | 337 kts | 240° |
| 2026-05-07 19:48 | 34.25161 | -116.88289 | 22927 ft | 334 kts | 240° |
| 2026-05-07 19:48 | 34.24146 | -116.90803 | 22527 ft | 331 kts | 240° |
| 2026-05-07 19:49 | 34.23138 | -116.93297 | 22124 ft | 328 kts | 240° |
| 2026-05-07 19:49 | 34.22147 | -116.95745 | 21725 ft | 327 kts | 240° |
| 2026-05-07 19:49 | 34.21173 | -116.98237 | 21348 ft | 335 kts | 243° |
| 2026-05-07 19:49 | 34.20394 | -117.00890 | 20941 ft | 336 kts | 249° |
| 2026-05-07 19:50 | 34.19700 | -117.03586 | 20524 ft | 334 kts | 248° |
| 2026-05-07 19:50 | 34.18982 | -117.06235 | 20117 ft | 331 kts | 248° |
| 2026-05-07 19:50 | 34.18263 | -117.08865 | 19712 ft | 329 kts | 248° |
| 2026-05-07 19:50 | 34.17561 | -117.11454 | 19313 ft | 328 kts | 248° |
| 2026-05-07 19:51 | 34.16847 | -117.14083 | 18911 ft | 331 kts | 248° |
| 2026-05-07 19:51 | 34.16130 | -117.16707 | 18503 ft | 333 kts | 248° |
| 2026-05-07 19:51 | 34.15422 | -117.19282 | 18104 ft | 331 kts | 248° |
| 2026-05-07 19:51 | 34.14695 | -117.21922 | 17638 ft | 331 kts | 248° |
| 2026-05-07 19:52 | 34.14014 | -117.24398 | 17236 ft | 330 kts | 248° |
| 2026-05-07 19:52 | 34.13298 | -117.27000 | 16828 ft | 329 kts | 248° |
| 2026-05-07 19:52 | 34.12574 | -117.29627 | 16419 ft | 327 kts | 248° |
| 2026-05-07 19:52 | 34.11860 | -117.32214 | 16016 ft | 325 kts | 248° |
| 2026-05-07 19:53 | 34.11156 | -117.34764 | 15618 ft | 324 kts | 248° |
| 2026-05-07 19:53 | 34.10446 | -117.37341 | 15216 ft | 323 kts | 249° |
| 2026-05-07 19:53 | 34.09790 | -117.39925 | 14815 ft | 322 kts | 250° |
| 2026-05-07 19:53 | 34.09161 | -117.42497 | 14416 ft | 321 kts | 250° |
| 2026-05-07 19:54 | 34.08519 | -117.45061 | 14018 ft | 320 kts | 250° |
| 2026-05-07 19:54 | 34.07878 | -117.47618 | 13620 ft | 319 kts | 250° |
| 2026-05-07 19:54 | 34.07235 | -117.50182 | 13219 ft | 318 kts | 250° |
| 2026-05-07 19:54 | 34.06589 | -117.52720 | 12818 ft | 317 kts | 250° |
| 2026-05-07 19:55 | 34.05944 | -117.55242 | 12412 ft | 316 kts | 250° |
| 2026-05-07 19:55 | 34.05301 | -117.57758 | 12016 ft | 316 kts | 250° |
| 2026-05-07 19:55 | 34.04655 | -117.60287 | 11617 ft | 315 kts | 250° |
| 2026-05-07 19:55 | 34.04011 | -117.62801 | 11222 ft | 314 kts | 250° |
| 2026-05-07 19:56 | 34.03365 | -117.65322 | 10826 ft | 312 kts | 249° |
| 2026-05-07 19:56 | 34.02731 | -117.67793 | 10441 ft | 311 kts | 249° |
| 2026-05-07 19:56 | 34.02160 | -117.70311 | 10043 ft | 311 kts | 257° |
| 2026-05-07 19:56 | 34.01911 | -117.72849 | 9799 ft | 306 kts | 261° |
| 2026-05-07 19:57 | 34.01685 | -117.75314 | 9403 ft | 305 kts | 260° |
| 2026-05-07 19:57 | 34.01434 | -117.77817 | 9027 ft | 303 kts | 260° |
| 2026-05-07 19:57 | 34.01201 | -117.80193 | 8671 ft | 301 kts | 260° |
| 2026-05-07 19:57 | 34.00956 | -117.82701 | 8296 ft | 299 kts | 260° |
| 2026-05-07 19:58 | 34.00712 | -117.85201 | 7922 ft | 297 kts | 260° |
| 2026-05-07 19:58 | 34.00472 | -117.87648 | 7551 ft | 296 kts | 260° |
| 2026-05-07 19:58 | 34.00230 | -117.90113 | 7178 ft | 294 kts | 260° |
| 2026-05-07 19:58 | 33.99994 | -117.92516 | 6834 ft | 291 kts | 260° |
| 2026-05-07 19:59 | 33.99759 | -117.94923 | 6525 ft | 288 kts | 260° |
| 2026-05-07 19:59 | 33.99524 | -117.97313 | 6214 ft | 283 kts | 261° |
| 2026-05-07 19:59 | 33.99299 | -117.99606 | 5922 ft | 272 kts | 260° |
| 2026-05-07 19:59 | 33.99078 | -118.01835 | 5702 ft | 258 kts | 260° |
| 2026-05-07 20:00 | 33.98870 | -118.03915 | 5494 ft | 249 kts | 260° |
| 2026-05-07 20:00 | 33.98665 | -118.05967 | 5287 ft | 243 kts | 260° |
| 2026-05-07 20:00 | 33.98466 | -118.07931 | 5084 ft | 227 kts | 260° |
| 2026-05-07 20:00 | 33.98283 | -118.09757 | 4895 ft | 212 kts | 260° |
| 2026-05-07 20:01 | 33.98118 | -118.11423 | 4739 ft | 193 kts | 259° |
| 2026-05-07 20:01 | 33.97984 | -118.12775 | 4624 ft | 177 kts | 259° |
| 2026-05-07 20:01 | 33.97840 | -118.14204 | 4449 ft | 176 kts | 259° |
| 2026-05-07 20:01 | 33.97694 | -118.15656 | 4216 ft | 177 kts | 259° |
| 2026-05-07 20:02 | 33.97547 | -118.17131 | 3981 ft | 173 kts | 259° |
| 2026-05-07 20:02 | 33.97404 | -118.18556 | 3732 ft | 172 kts | 259° |
| 2026-05-07 20:02 | 33.97261 | -118.19978 | 3489 ft | 170 kts | 260° |
| 2026-05-07 20:02 | 33.97118 | -118.21395 | 3251 ft | 169 kts | 260° |
| 2026-05-07 20:03 | 33.96978 | -118.22784 | 3018 ft | 168 kts | 260° |
| 2026-05-07 20:03 | 33.96838 | -118.24173 | 2803 ft | 165 kts | 260° |
| 2026-05-07 20:03 | 33.96703 | -118.25518 | 2552 ft | 158 kts | 260° |
| 2026-05-07 20:03 | 33.96574 | -118.26786 | 2346 ft | 151 kts | 261° |
| 2026-05-07 20:04 | 33.96446 | -118.28054 | 2142 ft | 153 kts | 261° |
| 2026-05-07 20:04 | 33.96318 | -118.29314 | 1932 ft | 152 kts | 261° |
| 2026-05-07 20:04 | 33.96191 | -118.30569 | 1726 ft | 150 kts | 261° |
| 2026-05-07 20:04 | 33.96064 | -118.31812 | 1541 ft | 149 kts | 262° |
| 2026-05-07 20:05 | 33.95944 | -118.32995 | 1308 ft | 136 kts | 262° |
| 2026-05-07 20:05 | 33.95830 | -118.34117 | 1147 ft | 137 kts | 262° |
| 2026-05-07 20:05 | 33.95715 | -118.35246 | 960 ft | 135 kts | 262° |
| 2026-05-07 20:05 | 33.95600 | -118.36369 | 780 ft | 135 kts | 262° |
| 2026-05-07 20:06 | 33.95485 | -118.37495 | 604 ft | 134 kts | 262° |
| 2026-05-07 20:06 | 33.95372 | -118.38614 | 417 ft | 135 kts | 262° |
| 2026-05-07 20:06 | 33.95258 | -118.39721 | 245 ft | 134 kts | 262° |
| 2026-05-07 20:06 | 33.95145 | -118.40826 | 129 ft | 129 kts | 263° |
| 2026-05-07 20:07 | 33.95058 | -118.41692 | 121 ft | 65 kts | 260° |
| 2026-05-07 20:07 | 33.95025 | -118.41981 | 121 ft | 27 kts | 262° |
| 2026-05-07 20:07 | 33.94994 | -118.42238 | 119 ft | 34 kts | 262° |
| 2026-05-07 20:07 | 33.94941 | -118.42526 | 117 ft | 33 kts | 243° |
| 2026-05-07 20:08 | 33.94810 | -118.42721 | 112 ft | 24 kts | 214° |
| 2026-05-07 20:08 | 33.94665 | -118.42772 | 111 ft | 19 kts | 173° |
| 2026-05-07 20:08 | 33.94642 | -118.42641 | 111 ft | 18 kts | 83° |
| 2026-05-07 20:08 | 33.94657 | -118.42490 | 114 ft | 17 kts | 80° |
| 2026-05-07 20:09 | 33.94674 | -118.42342 | 117 ft | 17 kts | 84° |
| 2026-05-07 20:09 | 33.94690 | -118.42175 | 118 ft | 22 kts | 83° |
| 2026-05-07 20:09 | 33.94709 | -118.41981 | 120 ft | 25 kts | 83° |
| 2026-05-07 20:10 | 33.94759 | -118.41493 | 122 ft | 30 kts | 83° |
| 2026-05-07 20:10 | 33.94795 | -118.41284 | 124 ft | 24 kts | 82° |
| 2026-05-07 20:10 | 33.94817 | -118.41069 | 124 ft | 27 kts | 84° |
| 2026-05-07 20:10 | 33.94843 | -118.40829 | 124 ft | 29 kts | 83° |
| 2026-05-07 20:11 | 33.94868 | -118.40572 | 120 ft | 30 kts | 82° |
| 2026-05-07 20:11 | 33.94889 | -118.40342 | 120 ft | 25 kts | 99° |
| 2026-05-07 20:11 | 33.94798 | -118.40271 | 119 ft | 13 kts | 163° |
| 2026-05-07 20:11 | 33.94756 | -118.40189 | 118 ft | 5 kts | 111° |
| 2026-05-07 20:12 | 33.94755 | -118.40187 | 118 ft | 0 kts | 111° |
| 2026-05-07 20:12 | 33.94757 | -118.40193 | 118 ft | 0 kts | 111° |